Blue Ridge Observed Data For Previous 48 Hours

Caption
Day and Hour Reservoir Elevation (behind dam)* Tailwater Elevation (below dam)* Average Hourly Discharge*
1/15/2018 2 AM EST 1,668.74 1,543.11 1,494
1/15/2018 3 AM EST 1,668.71 1,543.21 1,556
1/15/2018 4 AM EST 1,668.66 1,543.22 1,557
1/15/2018 5 AM EST 1,668.61 1,543.22 1,563
1/15/2018 6 AM EST 1,668.58 1,543.21 1,557
1/15/2018 7 AM EST 1,668.61 1,540.74 247
1/15/2018 8 AM EST 1,668.64 1,540.63 144
1/15/2018 9 AM EST 1,668.56 1,540.62 144
1/15/2018 10 AM EST 1,668.57 1,540.62 144
1/15/2018 11 AM EST 1,668.58 1,540.62 144
1/15/2018 12 PM EST 1,668.60 1,540.62 144
1/15/2018 1 PM EST 1,668.62 1,540.62 144
1/15/2018 2 PM EST 1,668.63 1,540.62 144
1/15/2018 3 PM EST 1,668.67 1,540.62 144
1/15/2018 4 PM EST 1,668.64 1,540.58 147
1/15/2018 5 PM EST 1,668.65 1,543.09 1,481
1/15/2018 6 PM EST 1,668.65 1,543.20 1,547
1/15/2018 7 PM EST 1,668.62 1,543.19 1,549
1/15/2018 8 PM EST 1,668.63 1,540.74 260
1/15/2018 9 PM EST 1,668.64 1,540.62 146
1/15/2018 10 PM EST 1,668.59 1,540.62 145
1/15/2018 11 PM EST 1,668.66 1,540.62 146
1/16/2018 12 AM EST 1,668.67 1,540.62 145
1/16/2018 1 AM EST 1,668.61 1,540.62 146
1/16/2018 2 AM EST 1,668.66 1,540.62 145
1/16/2018 3 AM EST 1,668.67 1,540.62 145
1/16/2018 4 AM EST 1,668.68 1,540.62 146
1/16/2018 5 AM EST 1,668.73 1,540.62 145
1/16/2018 6 AM EST 1,668.74 1,540.62 146
1/16/2018 7 AM EST 1,668.74 1,540.61 145
1/16/2018 8 AM EST 1,668.71 1,543.06 1,443
1/16/2018 9 AM EST 1,668.69 1,543.19 1,544
1/16/2018 10 AM EST 1,668.54 1,543.19 1,548
1/16/2018 11 AM EST 1,668.65 1,540.74 247
1/16/2018 12 PM EST 1,668.65 1,540.62 146
1/16/2018 1 PM EST 1,668.61 1,540.62 145
1/16/2018 2 PM EST 1,668.62 1,540.62 146
1/16/2018 3 PM EST 1,668.66 1,540.62 145
1/16/2018 4 PM EST 1,668.67 1,540.62 146
1/16/2018 5 PM EST 1,668.72 1,540.62 145
1/16/2018 6 PM EST 1,668.66 1,540.60 178
1/16/2018 7 PM EST 1,668.64 1,543.09 1,493
1/16/2018 8 PM EST 1,668.64 1,543.19 1,540
1/16/2018 9 PM EST 1,668.63 1,543.19 1,536
1/16/2018 10 PM EST 1,668.56 1,543.18 1,538
1/16/2018 11 PM EST 1,668.53 1,543.19 1,537
1/17/2018 12 AM EST 1,668.56 1,540.74 251
1/17/2018 1 AM EST 1,668.55 1,540.63 147
1/17/2018 2 AM EST 1,668.58 1,540.63 147
1/17/2018 3 AM EST 1,668.57 1,540.63 147
1/17/2018 4 AM EST 1,668.57 1,540.63 147
1/17/2018 5 AM EST 1,668.59 1,540.62 147
1/17/2018 6 AM EST 1,668.58 1,540.58 149
1/17/2018 7 AM EST 1,668.58 1,543.03 1,414
1/17/2018 8 AM EST 1,668.55 1,543.16 1,527
1/17/2018 9 AM EST 1,668.50 1,543.16 1,526
1/17/2018 10 AM EST 1,668.49 1,543.18 1,530
1/17/2018 11 AM EST 1,668.43 1,543.19 1,560
1/17/2018 12 PM EST 1,668.44 1,540.75 505
1/17/2018 1 PM EST 1,668.44 1,540.63 143
1/17/2018 2 PM EST 1,668.45 1,540.63 144
1/17/2018 3 PM EST 1,668.45 1,540.63 143
1/17/2018 4 PM EST 1,668.45 1,540.63 144
1/17/2018 5 PM EST 1,668.47 1,540.63 143
1/17/2018 6 PM EST 1,668.51 1,540.63 143
1/17/2018 7 PM EST 1,668.49 1,540.58 243
1/17/2018 8 PM EST 1,668.48 1,542.87 2,506
1/17/2018 9 PM EST 1,668.45 1,543.14 2,502
1/17/2018 10 PM EST 1,668.41 1,543.16 2,498
1/17/2018 11 PM EST 1,668.42 1,540.77 559

Elevations are in feet above sea level. Discharges are in cubic feet per second and are reported at the end of the hour.